sensor_id;sensor_type;location;lat;lon;timestamp;P1;durP1;ratioP1;P2;durP2;ratioP2
31676;SDS011;18385;51.572;6.578;2022-09-09T00:00:49;0.77;;;0.10;;
31676;SDS011;18385;51.572;6.578;2022-09-09T00:03:26;3.60;;;0.20;;
31676;SDS011;18385;51.572;6.578;2022-09-09T00:06:03;0.90;;;0.20;;
31676;SDS011;18385;51.572;6.578;2022-09-09T00:09:20;1.27;;;0.22;;
31676;SDS011;18385;51.572;6.578;2022-09-09T00:17:17;1.27;;;0.20;;
31676;SDS011;18385;51.572;6.578;2022-09-09T00:22:22;0.73;;;0.20;;
31676;SDS011;18385;51.572;6.578;2022-09-09T00:24:51;0.55;;;0.20;;
31676;SDS011;18385;51.572;6.578;2022-09-09T00:27:32;1.08;;;0.32;;
31676;SDS011;18385;51.572;6.578;2022-09-09T00:30:14;3.88;;;1.00;;
31676;SDS011;18385;51.572;6.578;2022-09-09T00:32:43;2.75;;;0.73;;
31676;SDS011;18385;51.572;6.578;2022-09-09T00:37:35;2.92;;;0.55;;
31676;SDS011;18385;51.572;6.578;2022-09-09T00:40:02;3.15;;;0.40;;
31676;SDS011;18385;51.572;6.578;2022-09-09T00:42:42;3.55;;;0.45;;
31676;SDS011;18385;51.572;6.578;2022-09-09T00:47:53;3.17;;;1.50;;
31676;SDS011;18385;51.572;6.578;2022-09-09T00:55:41;2.28;;;0.77;;
31676;SDS011;18385;51.572;6.578;2022-09-09T00:58:21;2.58;;;0.80;;
31676;SDS011;18385;51.572;6.578;2022-09-09T01:00:50;3.45;;;1.05;;
31676;SDS011;18385;51.572;6.578;2022-09-09T01:03:33;3.35;;;0.80;;
31676;SDS011;18385;51.572;6.578;2022-09-09T01:11:26;4.38;;;0.70;;
31676;SDS011;18385;51.572;6.578;2022-09-09T01:14:20;2.58;;;0.50;;
31676;SDS011;18385;51.572;6.578;2022-09-09T01:16:59;2.85;;;0.82;;
31676;SDS011;18385;51.572;6.578;2022-09-09T01:19:37;1.73;;;0.43;;
31676;SDS011;18385;51.572;6.578;2022-09-09T01:22:16;2.97;;;0.70;;
31676;SDS011;18385;51.572;6.578;2022-09-09T01:28:05;3.72;;;0.77;;
31676;SDS011;18385;51.572;6.578;2022-09-09T01:30:38;1.90;;;0.60;;
31676;SDS011;18385;51.572;6.578;2022-09-09T01:33:10;3.05;;;0.70;;
31676;SDS011;18385;51.572;6.578;2022-09-09T01:35:43;4.03;;;0.90;;
31676;SDS011;18385;51.572;6.578;2022-09-09T01:38:30;4.15;;;1.33;;
31676;SDS011;18385;51.572;6.578;2022-09-09T01:40:57;3.88;;;0.93;;
31676;SDS011;18385;51.572;6.578;2022-09-09T01:43:31;1.90;;;0.75;;
31676;SDS011;18385;51.572;6.578;2022-09-09T01:45:59;5.15;;;1.05;;
31676;SDS011;18385;51.572;6.578;2022-09-09T01:48:27;4.60;;;1.10;;
31676;SDS011;18385;51.572;6.578;2022-09-09T01:51:07;5.63;;;1.70;;
31676;SDS011;18385;51.572;6.578;2022-09-09T01:53:34;5.50;;;1.20;;
31676;SDS011;18385;51.572;6.578;2022-09-09T01:58:29;5.53;;;1.30;;
31676;SDS011;18385;51.572;6.578;2022-09-09T02:01:15;6.03;;;1.95;;
31676;SDS011;18385;51.572;6.578;2022-09-09T02:03:58;4.43;;;1.65;;
31676;SDS011;18385;51.572;6.578;2022-09-09T02:06:30;6.75;;;2.00;;
31676;SDS011;18385;51.572;6.578;2022-09-09T02:09:11;5.40;;;1.98;;
31676;SDS011;18385;51.572;6.578;2022-09-09T02:11:38;6.95;;;1.70;;
31676;SDS011;18385;51.572;6.578;2022-09-09T02:14:20;4.18;;;1.70;;
31676;SDS011;18385;51.572;6.578;2022-09-09T02:16:52;6.28;;;2.10;;
31676;SDS011;18385;51.572;6.578;2022-09-09T02:20:07;6.43;;;2.13;;
31676;SDS011;18385;51.572;6.578;2022-09-09T02:22:49;4.53;;;1.67;;
31676;SDS011;18385;51.572;6.578;2022-09-09T02:25:18;7.07;;;2.72;;
31676;SDS011;18385;51.572;6.578;2022-09-09T02:27:49;5.57;;;1.70;;
31676;SDS011;18385;51.572;6.578;2022-09-09T02:30:16;5.65;;;2.10;;
31676;SDS011;18385;51.572;6.578;2022-09-09T02:32:50;7.35;;;1.88;;
31676;SDS011;18385;51.572;6.578;2022-09-09T02:35:23;6.90;;;2.25;;
31676;SDS011;18385;51.572;6.578;2022-09-09T02:37:50;8.32;;;2.85;;
31676;SDS011;18385;51.572;6.578;2022-09-09T02:40:18;6.75;;;2.05;;
31676;SDS011;18385;51.572;6.578;2022-09-09T02:42:48;6.20;;;1.73;;
31676;SDS011;18385;51.572;6.578;2022-09-09T02:45:18;5.53;;;1.58;;
31676;SDS011;18385;51.572;6.578;2022-09-09T02:47:58;8.98;;;2.28;;
31676;SDS011;18385;51.572;6.578;2022-09-09T02:50:31;11.45;;;2.38;;
31676;SDS011;18385;51.572;6.578;2022-09-09T02:53:10;9.73;;;1.75;;
31676;SDS011;18385;51.572;6.578;2022-09-09T02:56:05;3.33;;;1.10;;
31676;SDS011;18385;51.572;6.578;2022-09-09T02:58:42;6.57;;;1.95;;
31676;SDS011;18385;51.572;6.578;2022-09-09T03:01:07;8.05;;;1.60;;
31676;SDS011;18385;51.572;6.578;2022-09-09T03:03:33;5.40;;;1.33;;
31676;SDS011;18385;51.572;6.578;2022-09-09T03:06:03;2.50;;;1.02;;
31676;SDS011;18385;51.572;6.578;2022-09-09T03:08:30;4.78;;;1.30;;
31676;SDS011;18385;51.572;6.578;2022-09-09T03:10:58;5.75;;;1.75;;
31676;SDS011;18385;51.572;6.578;2022-09-09T03:13:27;5.15;;;1.50;;
31676;SDS011;18385;51.572;6.578;2022-09-09T03:15:53;6.88;;;1.30;;
31676;SDS011;18385;51.572;6.578;2022-09-09T03:18:20;7.03;;;1.00;;
31676;SDS011;18385;51.572;6.578;2022-09-09T03:23:16;4.60;;;1.42;;
31676;SDS011;18385;51.572;6.578;2022-09-09T03:25:47;8.70;;;1.30;;
31676;SDS011;18385;51.572;6.578;2022-09-09T03:28:17;7.93;;;1.30;;
31676;SDS011;18385;51.572;6.578;2022-09-09T03:30:44;6.22;;;1.50;;
31676;SDS011;18385;51.572;6.578;2022-09-09T03:33:10;5.65;;;1.38;;
31676;SDS011;18385;51.572;6.578;2022-09-09T03:35:36;4.68;;;1.30;;
31676;SDS011;18385;51.572;6.578;2022-09-09T03:38:02;7.05;;;1.60;;
31676;SDS011;18385;51.572;6.578;2022-09-09T03:40:31;5.70;;;1.20;;
31676;SDS011;18385;51.572;6.578;2022-09-09T03:42:57;7.13;;;1.42;;
31676;SDS011;18385;51.572;6.578;2022-09-09T03:45:24;6.07;;;1.58;;
31676;SDS011;18385;51.572;6.578;2022-09-09T03:47:50;4.97;;;1.23;;
31676;SDS011;18385;51.572;6.578;2022-09-09T03:50:16;4.00;;;1.48;;
31676;SDS011;18385;51.572;6.578;2022-09-09T03:52:45;5.13;;;1.63;;
31676;SDS011;18385;51.572;6.578;2022-09-09T03:55:19;6.43;;;1.77;;
31676;SDS011;18385;51.572;6.578;2022-09-09T03:57:44;9.55;;;1.60;;
31676;SDS011;18385;51.572;6.578;2022-09-09T04:00:11;4.45;;;1.13;;
31676;SDS011;18385;51.572;6.578;2022-09-09T04:02:47;6.45;;;1.50;;
31676;SDS011;18385;51.572;6.578;2022-09-09T04:05:15;7.05;;;2.47;;
31676;SDS011;18385;51.572;6.578;2022-09-09T04:07:43;5.65;;;2.15;;
31676;SDS011;18385;51.572;6.578;2022-09-09T04:10:08;6.82;;;1.63;;
31676;SDS011;18385;51.572;6.578;2022-09-09T04:12:36;8.73;;;2.67;;
31676;SDS011;18385;51.572;6.578;2022-09-09T04:15:02;6.38;;;1.60;;
31676;SDS011;18385;51.572;6.578;2022-09-09T04:17:28;7.30;;;1.50;;
31676;SDS011;18385;51.572;6.578;2022-09-09T04:19:54;4.40;;;1.40;;
31676;SDS011;18385;51.572;6.578;2022-09-09T04:22:21;6.40;;;2.15;;
31676;SDS011;18385;51.572;6.578;2022-09-09T04:24:48;8.27;;;2.10;;
31676;SDS011;18385;51.572;6.578;2022-09-09T04:27:14;10.75;;;1.65;;
31676;SDS011;18385;51.572;6.578;2022-09-09T04:29:39;6.60;;;2.10;;
31676;SDS011;18385;51.572;6.578;2022-09-09T04:32:06;8.30;;;2.55;;
31676;SDS011;18385;51.572;6.578;2022-09-09T04:34:32;6.72;;;2.50;;
31676;SDS011;18385;51.572;6.578;2022-09-09T04:36:58;5.15;;;1.80;;
31676;SDS011;18385;51.572;6.578;2022-09-09T04:39:25;7.47;;;2.08;;
31676;SDS011;18385;51.572;6.578;2022-09-09T04:41:51;4.30;;;1.40;;
31676;SDS011;18385;51.572;6.578;2022-09-09T04:44:17;5.05;;;1.40;;
31676;SDS011;18385;51.572;6.578;2022-09-09T04:46:42;5.00;;;1.33;;
31676;SDS011;18385;51.572;6.578;2022-09-09T04:49:09;4.93;;;1.30;;
31676;SDS011;18385;51.572;6.578;2022-09-09T04:51:35;4.60;;;1.23;;
31676;SDS011;18385;51.572;6.578;2022-09-09T04:54:01;4.70;;;1.50;;
31676;SDS011;18385;51.572;6.578;2022-09-09T04:56:27;7.00;;;1.40;;
31676;SDS011;18385;51.572;6.578;2022-09-09T05:01:29;4.30;;;1.83;;
31676;SDS011;18385;51.572;6.578;2022-09-09T05:04:00;9.40;;;2.38;;
31676;SDS011;18385;51.572;6.578;2022-09-09T05:06:27;10.35;;;3.17;;
31676;SDS011;18385;51.572;6.578;2022-09-09T05:08:57;7.63;;;2.10;;
31676;SDS011;18385;51.572;6.578;2022-09-09T05:11:29;7.55;;;3.15;;
31676;SDS011;18385;51.572;6.578;2022-09-09T05:14:02;11.10;;;2.40;;
31676;SDS011;18385;51.572;6.578;2022-09-09T05:16:29;4.05;;;1.77;;
31676;SDS011;18385;51.572;6.578;2022-09-09T05:18:56;7.85;;;2.17;;
31676;SDS011;18385;51.572;6.578;2022-09-09T05:21:23;9.63;;;2.30;;
31676;SDS011;18385;51.572;6.578;2022-09-09T05:23:53;6.63;;;1.65;;
31676;SDS011;18385;51.572;6.578;2022-09-09T05:26:20;9.18;;;2.20;;
31676;SDS011;18385;51.572;6.578;2022-09-09T05:28:48;5.50;;;2.10;;
31676;SDS011;18385;51.572;6.578;2022-09-09T05:31:15;6.63;;;1.63;;
31676;SDS011;18385;51.572;6.578;2022-09-09T05:33:44;10.23;;;2.50;;
31676;SDS011;18385;51.572;6.578;2022-09-09T05:36:13;9.90;;;2.70;;
31676;SDS011;18385;51.572;6.578;2022-09-09T05:38:40;9.45;;;2.65;;
31676;SDS011;18385;51.572;6.578;2022-09-09T05:41:07;12.18;;;2.15;;
31676;SDS011;18385;51.572;6.578;2022-09-09T05:43:33;6.32;;;2.47;;
31676;SDS011;18385;51.572;6.578;2022-09-09T05:48:31;9.35;;;2.92;;
31676;SDS011;18385;51.572;6.578;2022-09-09T05:50:59;8.43;;;2.50;;
31676;SDS011;18385;51.572;6.578;2022-09-09T05:53:26;8.35;;;2.88;;
31676;SDS011;18385;51.572;6.578;2022-09-09T05:56:26;7.97;;;1.80;;
31676;SDS011;18385;51.572;6.578;2022-09-09T05:58:47;7.80;;;2.20;;
31676;SDS011;18385;51.572;6.578;2022-09-09T06:01:15;8.55;;;2.22;;
31676;SDS011;18385;51.572;6.578;2022-09-09T06:03:43;6.47;;;1.80;;
31676;SDS011;18385;51.572;6.578;2022-09-09T06:06:11;5.28;;;2.35;;
31676;SDS011;18385;51.572;6.578;2022-09-09T06:08:43;7.95;;;2.10;;
31676;SDS011;18385;51.572;6.578;2022-09-09T06:11:16;6.90;;;2.22;;
31676;SDS011;18385;51.572;6.578;2022-09-09T06:13:43;8.70;;;3.08;;
31676;SDS011;18385;51.572;6.578;2022-09-09T06:16:09;12.38;;;4.35;;
31676;SDS011;18385;51.572;6.578;2022-09-09T06:18:38;8.30;;;2.38;;
31676;SDS011;18385;51.572;6.578;2022-09-09T06:21:05;6.72;;;2.30;;
31676;SDS011;18385;51.572;6.578;2022-09-09T06:23:34;10.32;;;2.35;;
31676;SDS011;18385;51.572;6.578;2022-09-09T06:26:19;13.70;;;2.40;;
31676;SDS011;18385;51.572;6.578;2022-09-09T06:28:49;5.13;;;1.95;;
31676;SDS011;18385;51.572;6.578;2022-09-09T06:31:19;9.70;;;2.20;;
31676;SDS011;18385;51.572;6.578;2022-09-09T06:33:50;8.00;;;1.80;;
31676;SDS011;18385;51.572;6.578;2022-09-09T06:38:44;4.20;;;1.70;;
31676;SDS011;18385;51.572;6.578;2022-09-09T06:41:13;4.20;;;1.55;;
31676;SDS011;18385;51.572;6.578;2022-09-09T06:43:43;6.53;;;2.28;;
31676;SDS011;18385;51.572;6.578;2022-09-09T06:46:11;6.90;;;1.70;;
31676;SDS011;18385;51.572;6.578;2022-09-09T06:48:49;5.65;;;1.60;;
31676;SDS011;18385;51.572;6.578;2022-09-09T06:51:19;9.25;;;1.70;;
31676;SDS011;18385;51.572;6.578;2022-09-09T06:53:52;7.30;;;2.17;;
31676;SDS011;18385;51.572;6.578;2022-09-09T06:56:21;8.88;;;2.00;;
31676;SDS011;18385;51.572;6.578;2022-09-09T06:58:50;8.57;;;2.05;;
31676;SDS011;18385;51.572;6.578;2022-09-09T07:01:27;8.82;;;1.80;;
31676;SDS011;18385;51.572;6.578;2022-09-09T07:03:57;6.78;;;1.40;;
31676;SDS011;18385;51.572;6.578;2022-09-09T07:08:56;4.00;;;1.08;;
31676;SDS011;18385;51.572;6.578;2022-09-09T07:11:26;6.00;;;1.92;;
31676;SDS011;18385;51.572;6.578;2022-09-09T07:13:54;9.05;;;2.05;;
31676;SDS011;18385;51.572;6.578;2022-09-09T07:16:20;4.80;;;2.00;;
31676;SDS011;18385;51.572;6.578;2022-09-09T07:18:50;4.25;;;1.40;;
31676;SDS011;18385;51.572;6.578;2022-09-09T07:21:17;5.45;;;1.80;;
31676;SDS011;18385;51.572;6.578;2022-09-09T07:23:43;2.45;;;0.68;;
31676;SDS011;18385;51.572;6.578;2022-09-09T07:26:15;8.30;;;1.30;;
31676;SDS011;18385;51.572;6.578;2022-09-09T07:28:42;7.65;;;1.33;;
31676;SDS011;18385;51.572;6.578;2022-09-09T07:31:16;3.03;;;0.98;;
31676;SDS011;18385;51.572;6.578;2022-09-09T07:33:43;3.70;;;0.80;;
31676;SDS011;18385;51.572;6.578;2022-09-09T07:36:14;3.85;;;0.68;;
31676;SDS011;18385;51.572;6.578;2022-09-09T07:38:44;4.72;;;0.85;;
31676;SDS011;18385;51.572;6.578;2022-09-09T07:41:13;7.35;;;1.60;;
31676;SDS011;18385;51.572;6.578;2022-09-09T07:43:41;8.10;;;1.27;;
31676;SDS011;18385;51.572;6.578;2022-09-09T07:46:08;4.97;;;1.05;;
31676;SDS011;18385;51.572;6.578;2022-09-09T07:48:36;5.07;;;0.77;;
31676;SDS011;18385;51.572;6.578;2022-09-09T07:51:03;5.82;;;0.60;;
31676;SDS011;18385;51.572;6.578;2022-09-09T07:53:29;7.05;;;1.15;;
31676;SDS011;18385;51.572;6.578;2022-09-09T07:56:01;5.15;;;0.80;;
31676;SDS011;18385;51.572;6.578;2022-09-09T07:58:39;3.72;;;0.50;;
31676;SDS011;18385;51.572;6.578;2022-09-09T08:01:10;3.33;;;0.40;;
31676;SDS011;18385;51.572;6.578;2022-09-09T08:03:38;3.20;;;0.73;;
31676;SDS011;18385;51.572;6.578;2022-09-09T08:06:05;3.33;;;0.47;;
31676;SDS011;18385;51.572;6.578;2022-09-09T08:08:34;5.72;;;0.70;;
31676;SDS011;18385;51.572;6.578;2022-09-09T08:11:05;3.78;;;0.73;;
31676;SDS011;18385;51.572;6.578;2022-09-09T08:13:35;3.10;;;0.73;;
31676;SDS011;18385;51.572;6.578;2022-09-09T08:16:05;1.17;;;0.32;;
31676;SDS011;18385;51.572;6.578;2022-09-09T08:18:37;3.53;;;0.40;;
31676;SDS011;18385;51.572;6.578;2022-09-09T08:21:05;4.60;;;0.55;;
31676;SDS011;18385;51.572;6.578;2022-09-09T08:23:32;7.18;;;0.70;;
31676;SDS011;18385;51.572;6.578;2022-09-09T08:26:06;9.15;;;0.77;;
31676;SDS011;18385;51.572;6.578;2022-09-09T08:28:35;3.63;;;0.93;;
31676;SDS011;18385;51.572;6.578;2022-09-09T08:31:05;4.38;;;0.77;;
31676;SDS011;18385;51.572;6.578;2022-09-09T08:33:32;2.35;;;0.52;;
31676;SDS011;18385;51.572;6.578;2022-09-09T08:35:58;6.47;;;0.60;;
31676;SDS011;18385;51.572;6.578;2022-09-09T08:38:24;6.63;;;0.60;;
31676;SDS011;18385;51.572;6.578;2022-09-09T08:40:50;4.85;;;1.10;;
31676;SDS011;18385;51.572;6.578;2022-09-09T08:43:24;7.32;;;1.00;;
31676;SDS011;18385;51.572;6.578;2022-09-09T08:45:58;3.92;;;0.70;;
31676;SDS011;18385;51.572;6.578;2022-09-09T08:49:53;3.03;;;1.15;;
31676;SDS011;18385;51.572;6.578;2022-09-09T08:52:08;4.30;;;0.40;;
31676;SDS011;18385;51.572;6.578;2022-09-09T08:54:41;5.03;;;0.90;;
31676;SDS011;18385;51.572;6.578;2022-09-09T08:57:09;4.43;;;0.57;;
31676;SDS011;18385;51.572;6.578;2022-09-09T08:59:40;5.82;;;0.95;;
31676;SDS011;18385;51.572;6.578;2022-09-09T09:02:17;9.15;;;1.95;;
31676;SDS011;18385;51.572;6.578;2022-09-09T09:13:17;5.50;;;0.90;;
31676;SDS011;18385;51.572;6.578;2022-09-09T09:16:00;3.20;;;0.77;;
31676;SDS011;18385;51.572;6.578;2022-09-09T09:18:35;6.03;;;0.95;;
31676;SDS011;18385;51.572;6.578;2022-09-09T09:26:16;4.53;;;0.60;;
31676;SDS011;18385;51.572;6.578;2022-09-09T09:28:43;6.68;;;1.05;;
31676;SDS011;18385;51.572;6.578;2022-09-09T09:31:14;7.13;;;0.77;;
31676;SDS011;18385;51.572;6.578;2022-09-09T09:33:50;3.85;;;0.95;;
31676;SDS011;18385;51.572;6.578;2022-09-09T09:36:23;6.53;;;0.70;;
31676;SDS011;18385;51.572;6.578;2022-09-09T09:39:04;4.78;;;0.90;;
31676;SDS011;18385;51.572;6.578;2022-09-09T09:41:38;3.22;;;0.60;;
31676;SDS011;18385;51.572;6.578;2022-09-09T09:47:10;3.20;;;0.40;;
31676;SDS011;18385;51.572;6.578;2022-09-09T09:49:57;4.43;;;1.05;;
31676;SDS011;18385;51.572;6.578;2022-09-09T09:52:27;3.65;;;0.77;;
31676;SDS011;18385;51.572;6.578;2022-09-09T09:54:57;3.63;;;0.60;;
31676;SDS011;18385;51.572;6.578;2022-09-09T09:57:28;3.15;;;0.60;;
31676;SDS011;18385;51.572;6.578;2022-09-09T10:00:39;3.50;;;0.40;;
31676;SDS011;18385;51.572;6.578;2022-09-09T10:02:56;5.97;;;0.70;;
31676;SDS011;18385;51.572;6.578;2022-09-09T10:05:26;5.45;;;0.85;;
31676;SDS011;18385;51.572;6.578;2022-09-09T10:16:25;4.53;;;0.40;;
31676;SDS011;18385;51.572;6.578;2022-09-09T10:19:09;1.95;;;0.30;;
31676;SDS011;18385;51.572;6.578;2022-09-09T10:24:51;6.55;;;0.88;;
31676;SDS011;18385;51.572;6.578;2022-09-09T10:30:56;3.47;;;1.33;;
31676;SDS011;18385;51.572;6.578;2022-09-09T10:33:26;4.45;;;0.65;;
31676;SDS011;18385;51.572;6.578;2022-09-09T10:36:21;3.13;;;1.00;;
31676;SDS011;18385;51.572;6.578;2022-09-09T10:38:54;3.13;;;0.32;;
31676;SDS011;18385;51.572;6.578;2022-09-09T10:44:12;2.42;;;0.30;;
31676;SDS011;18385;51.572;6.578;2022-09-09T10:52:30;2.45;;;0.35;;
31676;SDS011;18385;51.572;6.578;2022-09-09T10:55:07;1.67;;;0.75;;
31676;SDS011;18385;51.572;6.578;2022-09-09T10:57:47;1.92;;;0.52;;
31676;SDS011;18385;51.572;6.578;2022-09-09T11:03:00;1.70;;;0.68;;
31676;SDS011;18385;51.572;6.578;2022-09-09T11:05:28;2.92;;;0.40;;
31676;SDS011;18385;51.572;6.578;2022-09-09T11:08:12;3.88;;;0.40;;
31676;SDS011;18385;51.572;6.578;2022-09-09T11:16:22;4.35;;;0.85;;
31676;SDS011;18385;51.572;6.578;2022-09-09T11:19:04;3.53;;;0.52;;
31676;SDS011;18385;51.572;6.578;2022-09-09T11:21:49;4.22;;;0.35;;
31676;SDS011;18385;51.572;6.578;2022-09-09T11:32:08;3.55;;;0.47;;
31676;SDS011;18385;51.572;6.578;2022-09-09T11:37:16;2.95;;;0.40;;
31676;SDS011;18385;51.572;6.578;2022-09-09T11:40:17;0.88;;;0.50;;
31676;SDS011;18385;51.572;6.578;2022-09-09T11:42:47;4.03;;;0.47;;
31676;SDS011;18385;51.572;6.578;2022-09-09T11:47:56;2.47;;;0.35;;
31676;SDS011;18385;51.572;6.578;2022-09-09T11:52:49;3.92;;;0.47;;
31676;SDS011;18385;51.572;6.578;2022-09-09T11:55:25;3.05;;;0.95;;
31676;SDS011;18385;51.572;6.578;2022-09-09T11:58:01;3.42;;;0.32;;
31676;SDS011;18385;51.572;6.578;2022-09-09T12:00:37;2.85;;;0.40;;
31676;SDS011;18385;51.572;6.578;2022-09-09T12:03:30;0.63;;;0.17;;
31676;SDS011;18385;51.572;6.578;2022-09-09T12:06:11;3.50;;;0.40;;
31676;SDS011;18385;51.572;6.578;2022-09-09T12:08:39;2.05;;;0.50;;
31676;SDS011;18385;51.572;6.578;2022-09-09T12:13:33;1.58;;;0.22;;
31676;SDS011;18385;51.572;6.578;2022-09-09T12:16:00;1.25;;;0.30;;
31676;SDS011;18385;51.572;6.578;2022-09-09T12:18:34;2.60;;;0.15;;
31676;SDS011;18385;51.572;6.578;2022-09-09T12:23:50;1.40;;;0.38;;
31676;SDS011;18385;51.572;6.578;2022-09-09T12:26:36;1.60;;;0.25;;
31676;SDS011;18385;51.572;6.578;2022-09-09T12:29:12;7.32;;;0.45;;
31676;SDS011;18385;51.572;6.578;2022-09-09T12:34:51;3.42;;;0.52;;
31676;SDS011;18385;51.572;6.578;2022-09-09T12:37:29;4.45;;;0.60;;
31676;SDS011;18385;51.572;6.578;2022-09-09T12:40:05;2.80;;;0.30;;
31676;SDS011;18385;51.572;6.578;2022-09-09T12:42:43;2.55;;;0.65;;
31676;SDS011;18385;51.572;6.578;2022-09-09T12:45:42;2.50;;;0.77;;
31676;SDS011;18385;51.572;6.578;2022-09-09T12:48:06;2.65;;;0.40;;
31676;SDS011;18385;51.572;6.578;2022-09-09T12:50:43;4.18;;;1.02;;
31676;SDS011;18385;51.572;6.578;2022-09-09T12:53:12;4.55;;;0.70;;
31676;SDS011;18385;51.572;6.578;2022-09-09T12:55:53;4.80;;;0.57;;
31676;SDS011;18385;51.572;6.578;2022-09-09T12:58:24;8.57;;;0.93;;
31676;SDS011;18385;51.572;6.578;2022-09-09T13:00:54;3.70;;;0.50;;
31676;SDS011;18385;51.572;6.578;2022-09-09T13:03:25;1.30;;;0.43;;
31676;SDS011;18385;51.572;6.578;2022-09-09T13:05:52;1.70;;;0.50;;
31676;SDS011;18385;51.572;6.578;2022-09-09T13:08:19;4.55;;;0.88;;
31676;SDS011;18385;51.572;6.578;2022-09-09T13:10:53;3.80;;;0.43;;
31676;SDS011;18385;51.572;6.578;2022-09-09T13:13:27;4.25;;;0.70;;
31676;SDS011;18385;51.572;6.578;2022-09-09T13:16:00;2.35;;;0.20;;
31676;SDS011;18385;51.572;6.578;2022-09-09T13:18:30;5.00;;;0.47;;
31676;SDS011;18385;51.572;6.578;2022-09-09T13:21:01;4.13;;;0.43;;
31676;SDS011;18385;51.572;6.578;2022-09-09T13:23:29;2.45;;;0.47;;
31676;SDS011;18385;51.572;6.578;2022-09-09T13:25:57;1.48;;;0.30;;
31676;SDS011;18385;51.572;6.578;2022-09-09T13:28:26;2.28;;;0.32;;
31676;SDS011;18385;51.572;6.578;2022-09-09T13:30:57;1.88;;;0.30;;
31676;SDS011;18385;51.572;6.578;2022-09-09T13:33:33;1.50;;;0.50;;
31676;SDS011;18385;51.572;6.578;2022-09-09T13:38:33;3.63;;;0.50;;
31676;SDS011;18385;51.572;6.578;2022-09-09T13:41:24;4.43;;;0.88;;
31676;SDS011;18385;51.572;6.578;2022-09-09T13:43:53;3.10;;;0.45;;
31676;SDS011;18385;51.572;6.578;2022-09-09T13:46:40;2.03;;;0.60;;
31676;SDS011;18385;51.572;6.578;2022-09-09T13:51:35;1.23;;;0.35;;
31676;SDS011;18385;51.572;6.578;2022-09-09T13:54:06;3.40;;;0.40;;
31676;SDS011;18385;51.572;6.578;2022-09-09T13:56:35;1.77;;;0.47;;
31676;SDS011;18385;51.572;6.578;2022-09-09T13:59:03;3.92;;;0.60;;
31676;SDS011;18385;51.572;6.578;2022-09-09T14:01:30;1.98;;;0.35;;
31676;SDS011;18385;51.572;6.578;2022-09-09T14:03:56;1.52;;;0.20;;
31676;SDS011;18385;51.572;6.578;2022-09-09T14:06:22;3.95;;;0.68;;
31676;SDS011;18385;51.572;6.578;2022-09-09T14:08:51;2.47;;;0.47;;
31676;SDS011;18385;51.572;6.578;2022-09-09T14:11:19;2.53;;;0.30;;
31676;SDS011;18385;51.572;6.578;2022-09-09T14:13:46;1.60;;;0.32;;
31676;SDS011;18385;51.572;6.578;2022-09-09T14:16:15;2.10;;;0.45;;
31676;SDS011;18385;51.572;6.578;2022-09-09T14:18:44;3.85;;;0.60;;
31676;SDS011;18385;51.572;6.578;2022-09-09T14:21:10;2.97;;;0.40;;
31676;SDS011;18385;51.572;6.578;2022-09-09T14:23:36;3.58;;;0.50;;
31676;SDS011;18385;51.572;6.578;2022-09-09T14:26:03;1.23;;;0.52;;
31676;SDS011;18385;51.572;6.578;2022-09-09T14:31:01;3.20;;;0.45;;
31676;SDS011;18385;51.572;6.578;2022-09-09T14:33:29;2.97;;;0.40;;
31676;SDS011;18385;51.572;6.578;2022-09-09T14:36:01;2.55;;;0.40;;
31676;SDS011;18385;51.572;6.578;2022-09-09T14:38:29;1.42;;;0.45;;
31676;SDS011;18385;51.572;6.578;2022-09-09T14:40:55;1.90;;;0.32;;
31676;SDS011;18385;51.572;6.578;2022-09-09T14:43:23;1.98;;;0.47;;
31676;SDS011;18385;51.572;6.578;2022-09-09T14:45:49;0.95;;;0.28;;
31676;SDS011;18385;51.572;6.578;2022-09-09T14:48:16;3.33;;;0.50;;
31676;SDS011;18385;51.572;6.578;2022-09-09T14:50:42;3.15;;;0.32;;
31676;SDS011;18385;51.572;6.578;2022-09-09T14:53:08;1.85;;;0.40;;
31676;SDS011;18385;51.572;6.578;2022-09-09T14:55:35;4.10;;;0.60;;
31676;SDS011;18385;51.572;6.578;2022-09-09T14:58:02;5.90;;;1.17;;
31676;SDS011;18385;51.572;6.578;2022-09-09T15:00:28;8.52;;;2.25;;
31676;SDS011;18385;51.572;6.578;2022-09-09T15:02:54;5.07;;;2.20;;
31676;SDS011;18385;51.572;6.578;2022-09-09T15:05:20;3.75;;;1.05;;
31676;SDS011;18385;51.572;6.578;2022-09-09T15:07:46;5.28;;;1.90;;
31676;SDS011;18385;51.572;6.578;2022-09-09T15:10:13;8.30;;;2.13;;
31676;SDS011;18385;51.572;6.578;2022-09-09T15:12:39;5.82;;;1.70;;
31676;SDS011;18385;51.572;6.578;2022-09-09T15:15:06;3.47;;;1.42;;
31676;SDS011;18385;51.572;6.578;2022-09-09T15:17:33;4.15;;;1.33;;
31676;SDS011;18385;51.572;6.578;2022-09-09T15:20:01;7.30;;;2.20;;
31676;SDS011;18385;51.572;6.578;2022-09-09T15:22:31;6.78;;;2.22;;
31676;SDS011;18385;51.572;6.578;2022-09-09T15:24:57;9.07;;;2.28;;
31676;SDS011;18385;51.572;6.578;2022-09-09T15:32:32;3.25;;;1.30;;
31676;SDS011;18385;51.572;6.578;2022-09-09T15:34:59;3.25;;;1.40;;
31676;SDS011;18385;51.572;6.578;2022-09-09T15:37:24;6.00;;;1.80;;
31676;SDS011;18385;51.572;6.578;2022-09-09T15:39:50;6.45;;;2.85;;
31676;SDS011;18385;51.572;6.578;2022-09-09T15:42:16;5.93;;;2.20;;
31676;SDS011;18385;51.572;6.578;2022-09-09T15:44:41;2.92;;;1.17;;
31676;SDS011;18385;51.572;6.578;2022-09-09T15:47:10;3.10;;;1.30;;
31676;SDS011;18385;51.572;6.578;2022-09-09T15:49:37;2.58;;;1.00;;
31676;SDS011;18385;51.572;6.578;2022-09-09T15:52:03;3.25;;;1.70;;
31676;SDS011;18385;51.572;6.578;2022-09-09T15:54:35;2.88;;;1.27;;
31676;SDS011;18385;51.572;6.578;2022-09-09T15:57:11;3.53;;;2.00;;
31676;SDS011;18385;51.572;6.578;2022-09-09T15:59:38;3.42;;;0.90;;
31676;SDS011;18385;51.572;6.578;2022-09-09T16:02:05;3.72;;;0.50;;
31676;SDS011;18385;51.572;6.578;2022-09-09T16:04:31;2.95;;;1.20;;
31676;SDS011;18385;51.572;6.578;2022-09-09T16:07:00;6.60;;;1.80;;
31676;SDS011;18385;51.572;6.578;2022-09-09T16:09:28;6.13;;;2.63;;
31676;SDS011;18385;51.572;6.578;2022-09-09T16:12:01;6.13;;;2.65;;
31676;SDS011;18385;51.572;6.578;2022-09-09T16:14:31;3.90;;;1.80;;
31676;SDS011;18385;51.572;6.578;2022-09-09T16:17:00;4.68;;;1.73;;
31676;SDS011;18385;51.572;6.578;2022-09-09T16:19:27;2.70;;;1.70;;
31676;SDS011;18385;51.572;6.578;2022-09-09T16:21:52;4.72;;;0.70;;
31676;SDS011;18385;51.572;6.578;2022-09-09T16:24:19;4.90;;;1.60;;
31676;SDS011;18385;51.572;6.578;2022-09-09T16:26:50;3.13;;;1.48;;
31676;SDS011;18385;51.572;6.578;2022-09-09T16:29:17;4.15;;;1.17;;
31676;SDS011;18385;51.572;6.578;2022-09-09T16:31:44;3.15;;;1.33;;
31676;SDS011;18385;51.572;6.578;2022-09-09T16:34:11;1.85;;;1.20;;
31676;SDS011;18385;51.572;6.578;2022-09-09T16:36:39;7.25;;;1.23;;
31676;SDS011;18385;51.572;6.578;2022-09-09T16:39:09;4.05;;;0.85;;
31676;SDS011;18385;51.572;6.578;2022-09-09T16:41:36;4.95;;;1.38;;
31676;SDS011;18385;51.572;6.578;2022-09-09T16:44:04;4.22;;;1.10;;
31676;SDS011;18385;51.572;6.578;2022-09-09T16:46:32;6.87;;;1.03;;
31676;SDS011;18385;51.572;6.578;2022-09-09T16:49:00;5.95;;;1.05;;
31676;SDS011;18385;51.572;6.578;2022-09-09T16:51:32;4.22;;;0.60;;
31676;SDS011;18385;51.572;6.578;2022-09-09T16:54:04;3.67;;;0.90;;
31676;SDS011;18385;51.572;6.578;2022-09-09T16:56:38;3.05;;;0.73;;
31676;SDS011;18385;51.572;6.578;2022-09-09T16:59:11;1.70;;;0.40;;
31676;SDS011;18385;51.572;6.578;2022-09-09T17:01:42;5.50;;;0.60;;
31676;SDS011;18385;51.572;6.578;2022-09-09T17:04:11;0.60;;;0.30;;
31676;SDS011;18385;51.572;6.578;2022-09-09T17:06:40;2.38;;;0.65;;
31676;SDS011;18385;51.572;6.578;2022-09-09T17:09:10;1.92;;;0.30;;
31676;SDS011;18385;51.572;6.578;2022-09-09T17:11:37;1.40;;;0.40;;
31676;SDS011;18385;51.572;6.578;2022-09-09T17:14:04;2.58;;;0.40;;
31676;SDS011;18385;51.572;6.578;2022-09-09T17:16:31;2.83;;;0.55;;
31676;SDS011;18385;51.572;6.578;2022-09-09T17:18:59;3.30;;;0.60;;